Alvord, Texas
Current Conditions -  °F | °C
As of 5:55 PM on Friday 24 Oct 2014 (Local Time) from KLUD Reporting Station
Clear Clear  
Wind Chill: 28°   Ceiling: Unl
Heat Index: 28°   Visibility: 10mi
Dew Point: 15°   Wind: 7mph
Humidity: 43%   Direction: 190°S
Pressure: 30.07"   Gusts: NA
Location:  33.36°N, 97.69°W
Report Text: KLUD 242255Z AUTO 19006KT 10SM CLR 28/15 A3007 RMK AO2 T02810146
Loading
Personal Weather Stations






























Interactive Weather Map
Tropical Storm Tracking
New forecast layout! Learn more

10-Day Weather Forecast

Advertisements
Track Severe Weather on mobile